sensor_id;sensor_type;location;lat;lon;timestamp;P1;durP1;ratioP1;P2;durP2;ratioP2
48823;SDS011;34640;53.590;10.054;2024-03-06T00:02:00;17.40;;;7.97;;
48823;SDS011;34640;53.590;10.054;2024-03-06T00:04:34;16.77;;;8.18;;
48823;SDS011;34640;53.590;10.054;2024-03-06T00:07:10;16.83;;;8.05;;
48823;SDS011;34640;53.590;10.054;2024-03-06T00:09:43;12.80;;;6.88;;
48823;SDS011;34640;53.590;10.054;2024-03-06T00:12:16;14.27;;;7.65;;
48823;SDS011;34640;53.590;10.054;2024-03-06T00:14:51;14.65;;;6.90;;
48823;SDS011;34640;53.590;10.054;2024-03-06T00:17:24;17.70;;;7.72;;
48823;SDS011;34640;53.590;10.054;2024-03-06T00:19:58;15.05;;;7.90;;
48823;SDS011;34640;53.590;10.054;2024-03-06T00:22:38;18.20;;;7.45;;
48823;SDS011;34640;53.590;10.054;2024-03-06T00:25:12;17.83;;;7.75;;
48823;SDS011;34640;53.590;10.054;2024-03-06T00:27:49;17.85;;;8.20;;
48823;SDS011;34640;53.590;10.054;2024-03-06T00:30:24;15.52;;;7.50;;
48823;SDS011;34640;53.590;10.054;2024-03-06T00:32:57;17.30;;;7.35;;
48823;SDS011;34640;53.590;10.054;2024-03-06T00:35:30;13.77;;;7.43;;
48823;SDS011;34640;53.590;10.054;2024-03-06T00:38:08;18.25;;;7.30;;
48823;SDS011;34640;53.590;10.054;2024-03-06T00:40:41;20.13;;;6.97;;
48823;SDS011;34640;53.590;10.054;2024-03-06T00:43:15;15.88;;;7.15;;
48823;SDS011;34640;53.590;10.054;2024-03-06T00:45:49;15.20;;;6.95;;
48823;SDS011;34640;53.590;10.054;2024-03-06T00:48:24;16.45;;;8.00;;
48823;SDS011;34640;53.590;10.054;2024-03-06T00:50:58;15.15;;;7.65;;
48823;SDS011;34640;53.590;10.054;2024-03-06T00:53:33;17.00;;;6.88;;
48823;SDS011;34640;53.590;10.054;2024-03-06T00:56:08;18.77;;;8.00;;
48823;SDS011;34640;53.590;10.054;2024-03-06T00:58:42;14.18;;;7.20;;
48823;SDS011;34640;53.590;10.054;2024-03-06T01:01:17;17.05;;;7.28;;
48823;SDS011;34640;53.590;10.054;2024-03-06T01:03:51;15.85;;;6.75;;
48823;SDS011;34640;53.590;10.054;2024-03-06T01:06:24;17.58;;;7.88;;
48823;SDS011;34640;53.590;10.054;2024-03-06T01:08:59;15.02;;;7.22;;
48823;SDS011;34640;53.590;10.054;2024-03-06T01:11:37;13.00;;;7.13;;
48823;SDS011;34640;53.590;10.054;2024-03-06T01:14:11;15.95;;;7.57;;
48823;SDS011;34640;53.590;10.054;2024-03-06T01:16:49;15.50;;;7.75;;
48823;SDS011;34640;53.590;10.054;2024-03-06T01:19:21;18.30;;;7.70;;
48823;SDS011;34640;53.590;10.054;2024-03-06T01:21:56;15.95;;;7.40;;
48823;SDS011;34640;53.590;10.054;2024-03-06T01:24:30;16.80;;;8.43;;
48823;SDS011;34640;53.590;10.054;2024-03-06T01:27:04;16.65;;;7.18;;
48823;SDS011;34640;53.590;10.054;2024-03-06T01:29:41;16.50;;;7.82;;
48823;SDS011;34640;53.590;10.054;2024-03-06T01:32:16;15.23;;;6.60;;
48823;SDS011;34640;53.590;10.054;2024-03-06T01:34:50;14.70;;;7.55;;
48823;SDS011;34640;53.590;10.054;2024-03-06T01:37:23;16.13;;;7.93;;
48823;SDS011;34640;53.590;10.054;2024-03-06T01:39:58;14.98;;;6.90;;
48823;SDS011;34640;53.590;10.054;2024-03-06T01:42:31;16.77;;;7.25;;
48823;SDS011;34640;53.590;10.054;2024-03-06T01:45:07;18.75;;;7.50;;
48823;SDS011;34640;53.590;10.054;2024-03-06T01:47:40;14.73;;;7.90;;
48823;SDS011;34640;53.590;10.054;2024-03-06T01:50:14;21.88;;;8.25;;
48823;SDS011;34640;53.590;10.054;2024-03-06T01:52:47;20.08;;;7.57;;
48823;SDS011;34640;53.590;10.054;2024-03-06T01:55:22;15.73;;;7.32;;
48823;SDS011;34640;53.590;10.054;2024-03-06T01:57:57;17.80;;;7.63;;
48823;SDS011;34640;53.590;10.054;2024-03-06T02:00:30;14.25;;;6.80;;
48823;SDS011;34640;53.590;10.054;2024-03-06T02:03:04;15.55;;;6.78;;
48823;SDS011;34640;53.590;10.054;2024-03-06T02:05:38;15.32;;;7.13;;
48823;SDS011;34640;53.590;10.054;2024-03-06T02:08:13;16.23;;;7.20;;
48823;SDS011;34640;53.590;10.054;2024-03-06T02:10:49;17.20;;;7.28;;
48823;SDS011;34640;53.590;10.054;2024-03-06T02:13:22;15.05;;;6.78;;
48823;SDS011;34640;53.590;10.054;2024-03-06T02:15:56;16.75;;;7.10;;
48823;SDS011;34640;53.590;10.054;2024-03-06T02:18:29;15.32;;;6.97;;
48823;SDS011;34640;53.590;10.054;2024-03-06T02:21:04;12.63;;;7.35;;
48823;SDS011;34640;53.590;10.054;2024-03-06T02:23:39;14.85;;;6.38;;
48823;SDS011;34640;53.590;10.054;2024-03-06T02:26:12;16.05;;;6.82;;
48823;SDS011;34640;53.590;10.054;2024-03-06T02:28:47;18.38;;;6.68;;
48823;SDS011;34640;53.590;10.054;2024-03-06T02:31:22;12.13;;;6.40;;
48823;SDS011;34640;53.590;10.054;2024-03-06T02:33:55;17.90;;;6.97;;
48823;SDS011;34640;53.590;10.054;2024-03-06T02:36:31;13.60;;;7.07;;
48823;SDS011;34640;53.590;10.054;2024-03-06T02:39:04;12.50;;;6.53;;
48823;SDS011;34640;53.590;10.054;2024-03-06T02:41:40;17.83;;;6.40;;
48823;SDS011;34640;53.590;10.054;2024-03-06T02:44:13;13.40;;;6.40;;
48823;SDS011;34640;53.590;10.054;2024-03-06T02:46:50;13.10;;;5.93;;
48823;SDS011;34640;53.590;10.054;2024-03-06T02:49:24;15.30;;;6.47;;
48823;SDS011;34640;53.590;10.054;2024-03-06T02:51:58;16.65;;;6.32;;
48823;SDS011;34640;53.590;10.054;2024-03-06T02:54:35;14.50;;;5.72;;
48823;SDS011;34640;53.590;10.054;2024-03-06T02:57:08;12.38;;;6.32;;
48823;SDS011;34640;53.590;10.054;2024-03-06T02:59:42;15.82;;;5.68;;
48823;SDS011;34640;53.590;10.054;2024-03-06T03:02:15;10.45;;;5.43;;
48823;SDS011;34640;53.590;10.054;2024-03-06T03:04:49;12.85;;;6.00;;
48823;SDS011;34640;53.590;10.054;2024-03-06T03:07:25;12.18;;;5.40;;
48823;SDS011;34640;53.590;10.054;2024-03-06T03:09:58;12.15;;;5.70;;
48823;SDS011;34640;53.590;10.054;2024-03-06T03:12:31;12.43;;;5.82;;
48823;SDS011;34640;53.590;10.054;2024-03-06T03:15:05;13.93;;;5.88;;
48823;SDS011;34640;53.590;10.054;2024-03-06T03:17:39;13.02;;;5.65;;
48823;SDS011;34640;53.590;10.054;2024-03-06T03:20:13;13.25;;;5.20;;
48823;SDS011;34640;53.590;10.054;2024-03-06T03:22:50;14.60;;;6.00;;
48823;SDS011;34640;53.590;10.054;2024-03-06T03:25:23;13.25;;;6.57;;
48823;SDS011;34640;53.590;10.054;2024-03-06T03:27:58;14.43;;;5.70;;
48823;SDS011;34640;53.590;10.054;2024-03-06T03:30:31;13.27;;;6.93;;
48823;SDS011;34640;53.590;10.054;2024-03-06T03:33:04;13.68;;;5.80;;
48823;SDS011;34640;53.590;10.054;2024-03-06T03:35:38;12.65;;;5.97;;
48823;SDS011;34640;53.590;10.054;2024-03-06T03:38:12;10.63;;;5.93;;
48823;SDS011;34640;53.590;10.054;2024-03-06T03:40:45;16.30;;;6.30;;
48823;SDS011;34640;53.590;10.054;2024-03-06T03:43:20;12.43;;;5.70;;
48823;SDS011;34640;53.590;10.054;2024-03-06T03:45:53;16.95;;;6.45;;
48823;SDS011;34640;53.590;10.054;2024-03-06T03:48:26;11.80;;;6.13;;
48823;SDS011;34640;53.590;10.054;2024-03-06T03:51:00;10.88;;;5.60;;
48823;SDS011;34640;53.590;10.054;2024-03-06T03:53:35;11.27;;;6.10;;
48823;SDS011;34640;53.590;10.054;2024-03-06T03:56:09;12.77;;;6.40;;
48823;SDS011;34640;53.590;10.054;2024-03-06T03:58:42;11.48;;;5.85;;
48823;SDS011;34640;53.590;10.054;2024-03-06T04:01:16;10.35;;;5.38;;
48823;SDS011;34640;53.590;10.054;2024-03-06T04:03:49;13.68;;;6.38;;
48823;SDS011;34640;53.590;10.054;2024-03-06T04:06:22;10.73;;;5.70;;
48823;SDS011;34640;53.590;10.054;2024-03-06T04:08:57;14.25;;;6.95;;
48823;SDS011;34640;53.590;10.054;2024-03-06T04:11:32;11.75;;;6.07;;
48823;SDS011;34640;53.590;10.054;2024-03-06T04:14:08;14.15;;;6.47;;
48823;SDS011;34640;53.590;10.054;2024-03-06T04:16:41;11.55;;;5.57;;
48823;SDS011;34640;53.590;10.054;2024-03-06T04:19:17;10.32;;;5.15;;
48823;SDS011;34640;53.590;10.054;2024-03-06T04:21:51;11.85;;;5.72;;
48823;SDS011;34640;53.590;10.054;2024-03-06T04:24:26;13.90;;;5.55;;
48823;SDS011;34640;53.590;10.054;2024-03-06T04:27:01;10.70;;;6.05;;
48823;SDS011;34640;53.590;10.054;2024-03-06T04:29:35;19.23;;;6.43;;
48823;SDS011;34640;53.590;10.054;2024-03-06T04:32:08;14.82;;;6.15;;
48823;SDS011;34640;53.590;10.054;2024-03-06T04:34:42;10.38;;;5.85;;
48823;SDS011;34640;53.590;10.054;2024-03-06T04:37:15;11.50;;;5.22;;
48823;SDS011;34640;53.590;10.054;2024-03-06T04:39:53;11.80;;;5.22;;
48823;SDS011;34640;53.590;10.054;2024-03-06T04:42:26;9.57;;;5.10;;
48823;SDS011;34640;53.590;10.054;2024-03-06T04:45:00;10.57;;;6.32;;
48823;SDS011;34640;53.590;10.054;2024-03-06T04:47:35;9.02;;;5.20;;
48823;SDS011;34640;53.590;10.054;2024-03-06T04:50:09;13.38;;;4.82;;
48823;SDS011;34640;53.590;10.054;2024-03-06T04:52:43;9.15;;;4.78;;
48823;SDS011;34640;53.590;10.054;2024-03-06T04:55:19;11.98;;;5.43;;
48823;SDS011;34640;53.590;10.054;2024-03-06T04:57:54;12.13;;;5.60;;
48823;SDS011;34640;53.590;10.054;2024-03-06T05:00:27;10.18;;;5.28;;
48823;SDS011;34640;53.590;10.054;2024-03-06T05:03:01;8.80;;;5.20;;
48823;SDS011;34640;53.590;10.054;2024-03-06T05:05:52;13.18;;;5.50;;
48823;SDS011;34640;53.590;10.054;2024-03-06T05:08:42;11.05;;;5.13;;
48823;SDS011;34640;53.590;10.054;2024-03-06T05:11:35;13.45;;;5.18;;
48823;SDS011;34640;53.590;10.054;2024-03-06T05:14:27;11.40;;;5.55;;
48823;SDS011;34640;53.590;10.054;2024-03-06T05:17:17;9.65;;;5.32;;
48823;SDS011;34640;53.590;10.054;2024-03-06T05:20:09;10.55;;;5.18;;
48823;SDS011;34640;53.590;10.054;2024-03-06T05:23:03;11.20;;;6.10;;
48823;SDS011;34640;53.590;10.054;2024-03-06T05:25:54;9.30;;;5.10;;
48823;SDS011;34640;53.590;10.054;2024-03-06T05:28:46;12.02;;;5.45;;
48823;SDS011;34640;53.590;10.054;2024-03-06T05:31:37;9.40;;;5.28;;
48823;SDS011;34640;53.590;10.054;2024-03-06T05:34:27;14.63;;;5.43;;
48823;SDS011;34640;53.590;10.054;2024-03-06T05:37:18;12.55;;;5.63;;
48823;SDS011;34640;53.590;10.054;2024-03-06T05:40:10;11.07;;;5.25;;
48823;SDS011;34640;53.590;10.054;2024-03-06T05:43:01;12.55;;;5.53;;
48823;SDS011;34640;53.590;10.054;2024-03-06T05:45:54;11.65;;;6.35;;
48823;SDS011;34640;53.590;10.054;2024-03-06T05:48:45;11.73;;;5.93;;
48823;SDS011;34640;53.590;10.054;2024-03-06T05:51:36;13.27;;;5.50;;
48823;SDS011;34640;53.590;10.054;2024-03-06T05:54:27;9.98;;;5.55;;
48823;SDS011;34640;53.590;10.054;2024-03-06T05:57:22;12.43;;;5.55;;
48823;SDS011;34640;53.590;10.054;2024-03-06T06:00:13;11.88;;;5.63;;
48823;SDS011;34640;53.590;10.054;2024-03-06T06:02:53;13.70;;;5.68;;
48823;SDS011;34640;53.590;10.054;2024-03-06T06:05:29;17.27;;;5.90;;
48823;SDS011;34640;53.590;10.054;2024-03-06T06:08:04;13.25;;;6.30;;
48823;SDS011;34640;53.590;10.054;2024-03-06T06:10:39;13.65;;;5.95;;
48823;SDS011;34640;53.590;10.054;2024-03-06T06:13:12;13.80;;;6.10;;
48823;SDS011;34640;53.590;10.054;2024-03-06T06:15:46;11.75;;;6.00;;
48823;SDS011;34640;53.590;10.054;2024-03-06T06:18:20;11.75;;;6.22;;
48823;SDS011;34640;53.590;10.054;2024-03-06T06:20:54;16.65;;;5.93;;
48823;SDS011;34640;53.590;10.054;2024-03-06T06:23:28;13.55;;;7.18;;
48823;SDS011;34640;53.590;10.054;2024-03-06T06:26:01;10.65;;;6.10;;
48823;SDS011;34640;53.590;10.054;2024-03-06T06:28:35;13.73;;;6.22;;
48823;SDS011;34640;53.590;10.054;2024-03-06T06:31:10;12.02;;;6.35;;
48823;SDS011;34640;53.590;10.054;2024-03-06T06:33:45;14.40;;;6.00;;
48823;SDS011;34640;53.590;10.054;2024-03-06T06:36:18;16.10;;;6.65;;
48823;SDS011;34640;53.590;10.054;2024-03-06T06:38:52;9.90;;;6.38;;
48823;SDS011;34640;53.590;10.054;2024-03-06T06:41:25;14.30;;;6.32;;
48823;SDS011;34640;53.590;10.054;2024-03-06T06:43:59;11.07;;;6.10;;
48823;SDS011;34640;53.590;10.054;2024-03-06T06:46:34;14.43;;;7.70;;
48823;SDS011;34640;53.590;10.054;2024-03-06T06:49:08;11.98;;;6.05;;
48823;SDS011;34640;53.590;10.054;2024-03-06T06:51:41;17.50;;;7.38;;
48823;SDS011;34640;53.590;10.054;2024-03-06T06:54:15;14.07;;;6.00;;
48823;SDS011;34640;53.590;10.054;2024-03-06T06:56:48;12.70;;;6.20;;
48823;SDS011;34640;53.590;10.054;2024-03-06T06:59:22;12.25;;;5.82;;
48823;SDS011;34640;53.590;10.054;2024-03-06T07:01:56;16.75;;;8.65;;
48823;SDS011;34640;53.590;10.054;2024-03-06T07:04:31;11.25;;;6.10;;
48823;SDS011;34640;53.590;10.054;2024-03-06T07:07:04;14.68;;;6.70;;
48823;SDS011;34640;53.590;10.054;2024-03-06T07:09:37;13.82;;;6.03;;
48823;SDS011;34640;53.590;10.054;2024-03-06T07:12:10;9.77;;;5.70;;
48823;SDS011;34640;53.590;10.054;2024-03-06T07:14:44;12.40;;;6.63;;
48823;SDS011;34640;53.590;10.054;2024-03-06T07:17:18;20.83;;;10.07;;
48823;SDS011;34640;53.590;10.054;2024-03-06T07:19:52;10.80;;;5.72;;
48823;SDS011;34640;53.590;10.054;2024-03-06T07:22:26;10.90;;;5.07;;
48823;SDS011;34640;53.590;10.054;2024-03-06T07:24:59;11.80;;;5.50;;
48823;SDS011;34640;53.590;10.054;2024-03-06T07:27:32;13.23;;;5.47;;
48823;SDS011;34640;53.590;10.054;2024-03-06T07:30:06;8.27;;;5.18;;
48823;SDS011;34640;53.590;10.054;2024-03-06T07:32:43;10.13;;;5.00;;
48823;SDS011;34640;53.590;10.054;2024-03-06T07:35:18;7.65;;;4.82;;
48823;SDS011;34640;53.590;10.054;2024-03-06T07:37:51;9.10;;;5.10;;
48823;SDS011;34640;53.590;10.054;2024-03-06T07:40:24;11.05;;;5.30;;
48823;SDS011;34640;53.590;10.054;2024-03-06T07:42:57;12.60;;;5.85;;
48823;SDS011;34640;53.590;10.054;2024-03-06T07:45:32;10.02;;;5.20;;
48823;SDS011;34640;53.590;10.054;2024-03-06T07:48:06;10.80;;;5.68;;
48823;SDS011;34640;53.590;10.054;2024-03-06T07:50:43;10.57;;;5.68;;
48823;SDS011;34640;53.590;10.054;2024-03-06T07:53:17;7.70;;;4.70;;
48823;SDS011;34640;53.590;10.054;2024-03-06T07:55:51;9.10;;;5.20;;
48823;SDS011;34640;53.590;10.054;2024-03-06T07:58:25;7.47;;;4.53;;
48823;SDS011;34640;53.590;10.054;2024-03-06T08:01:00;8.15;;;4.38;;
48823;SDS011;34640;53.590;10.054;2024-03-06T08:03:33;10.63;;;4.85;;
48823;SDS011;34640;53.590;10.054;2024-03-06T08:06:10;9.25;;;4.28;;
48823;SDS011;34640;53.590;10.054;2024-03-06T08:08:47;8.82;;;4.45;;
48823;SDS011;34640;53.590;10.054;2024-03-06T08:11:20;9.68;;;5.18;;
48823;SDS011;34640;53.590;10.054;2024-03-06T08:13:57;8.45;;;5.03;;
48823;SDS011;34640;53.590;10.054;2024-03-06T08:16:32;15.57;;;5.03;;
48823;SDS011;34640;53.590;10.054;2024-03-06T08:19:08;8.45;;;4.68;;
48823;SDS011;34640;53.590;10.054;2024-03-06T08:21:42;9.80;;;5.15;;
48823;SDS011;34640;53.590;10.054;2024-03-06T08:24:16;9.02;;;5.35;;
48823;SDS011;34640;53.590;10.054;2024-03-06T08:26:49;13.57;;;5.55;;
48823;SDS011;34640;53.590;10.054;2024-03-06T08:29:22;10.55;;;5.40;;
48823;SDS011;34640;53.590;10.054;2024-03-06T08:31:58;9.77;;;5.40;;
48823;SDS011;34640;53.590;10.054;2024-03-06T08:34:32;11.75;;;6.60;;
48823;SDS011;34640;53.590;10.054;2024-03-06T08:37:07;9.45;;;4.70;;
48823;SDS011;34640;53.590;10.054;2024-03-06T08:39:40;8.48;;;4.63;;
48823;SDS011;34640;53.590;10.054;2024-03-06T08:42:14;8.55;;;4.55;;
48823;SDS011;34640;53.590;10.054;2024-03-06T08:44:50;7.90;;;4.78;;
48823;SDS011;34640;53.590;10.054;2024-03-06T08:47:23;7.75;;;4.82;;
48823;SDS011;34640;53.590;10.054;2024-03-06T08:49:56;12.43;;;5.70;;
48823;SDS011;34640;53.590;10.054;2024-03-06T08:52:32;10.20;;;5.55;;
48823;SDS011;34640;53.590;10.054;2024-03-06T08:55:07;13.60;;;5.18;;
48823;SDS011;34640;53.590;10.054;2024-03-06T08:57:41;8.38;;;4.78;;
48823;SDS011;34640;53.590;10.054;2024-03-06T09:00:15;10.80;;;5.25;;
48823;SDS011;34640;53.590;10.054;2024-03-06T09:02:50;9.88;;;4.90;;
48823;SDS011;34640;53.590;10.054;2024-03-06T09:05:24;9.55;;;5.03;;
48823;SDS011;34640;53.590;10.054;2024-03-06T09:08:00;9.25;;;5.03;;
48823;SDS011;34640;53.590;10.054;2024-03-06T09:10:34;7.20;;;4.32;;
48823;SDS011;34640;53.590;10.054;2024-03-06T09:13:08;9.23;;;4.90;;
48823;SDS011;34640;53.590;10.054;2024-03-06T09:15:41;11.40;;;5.55;;
48823;SDS011;34640;53.590;10.054;2024-03-06T09:18:15;9.98;;;4.85;;
48823;SDS011;34640;53.590;10.054;2024-03-06T09:20:49;12.25;;;5.57;;
48823;SDS011;34640;53.590;10.054;2024-03-06T09:23:23;11.75;;;5.07;;
48823;SDS011;34640;53.590;10.054;2024-03-06T09:25:59;9.95;;;5.25;;
48823;SDS011;34640;53.590;10.054;2024-03-06T09:28:32;10.40;;;4.50;;
48823;SDS011;34640;53.590;10.054;2024-03-06T09:31:06;10.40;;;4.90;;
48823;SDS011;34640;53.590;10.054;2024-03-06T09:33:39;8.88;;;4.90;;
48823;SDS011;34640;53.590;10.054;2024-03-06T09:36:15;13.10;;;4.78;;
48823;SDS011;34640;53.590;10.054;2024-03-06T09:38:50;8.30;;;4.80;;
48823;SDS011;34640;53.590;10.054;2024-03-06T09:41:25;6.50;;;4.38;;
48823;SDS011;34640;53.590;10.054;2024-03-06T09:43:59;7.95;;;4.78;;
48823;SDS011;34640;53.590;10.054;2024-03-06T09:46:34;12.63;;;5.53;;
48823;SDS011;34640;53.590;10.054;2024-03-06T09:49:08;10.02;;;5.38;;
48823;SDS011;34640;53.590;10.054;2024-03-06T09:51:43;11.77;;;6.32;;
48823;SDS011;34640;53.590;10.054;2024-03-06T09:54:19;14.38;;;6.85;;
48823;SDS011;34640;53.590;10.054;2024-03-06T09:56:52;14.13;;;6.18;;
48823;SDS011;34640;53.590;10.054;2024-03-06T09:59:28;10.45;;;5.53;;
48823;SDS011;34640;53.590;10.054;2024-03-06T10:02:02;11.73;;;5.90;;
48823;SDS011;34640;53.590;10.054;2024-03-06T10:04:52;13.77;;;7.07;;
48823;SDS011;34640;53.590;10.054;2024-03-06T10:07:25;11.52;;;5.75;;
48823;SDS011;34640;53.590;10.054;2024-03-06T10:10:00;11.88;;;5.88;;
48823;SDS011;34640;53.590;10.054;2024-03-06T10:12:33;13.40;;;6.43;;
48823;SDS011;34640;53.590;10.054;2024-03-06T10:15:07;10.10;;;5.80;;
48823;SDS011;34640;53.590;10.054;2024-03-06T10:17:44;12.98;;;6.57;;
48823;SDS011;34640;53.590;10.054;2024-03-06T10:20:19;12.45;;;6.72;;
48823;SDS011;34640;53.590;10.054;2024-03-06T10:22:54;17.08;;;7.07;;
48823;SDS011;34640;53.590;10.054;2024-03-06T10:25:31;10.63;;;6.07;;
48823;SDS011;34640;53.590;10.054;2024-03-06T10:28:05;13.60;;;6.28;;
48823;SDS011;34640;53.590;10.054;2024-03-06T10:30:41;12.35;;;6.55;;
48823;SDS011;34640;53.590;10.054;2024-03-06T10:33:15;13.63;;;6.88;;
48823;SDS011;34640;53.590;10.054;2024-03-06T10:35:50;11.77;;;6.15;;
48823;SDS011;34640;53.590;10.054;2024-03-06T10:38:23;11.05;;;6.38;;
48823;SDS011;34640;53.590;10.054;2024-03-06T10:41:03;13.88;;;6.57;;
48823;SDS011;34640;53.590;10.054;2024-03-06T10:43:39;10.18;;;6.07;;
48823;SDS011;34640;53.590;10.054;2024-03-06T10:46:15;13.73;;;6.78;;
48823;SDS011;34640;53.590;10.054;2024-03-06T10:48:52;16.02;;;7.13;;
48823;SDS011;34640;53.590;10.054;2024-03-06T10:51:29;11.90;;;6.63;;
48823;SDS011;34640;53.590;10.054;2024-03-06T10:54:04;13.15;;;5.93;;
48823;SDS011;34640;53.590;10.054;2024-03-06T10:56:40;12.75;;;6.43;;
48823;SDS011;34640;53.590;10.054;2024-03-06T10:59:15;16.15;;;6.15;;
48823;SDS011;34640;53.590;10.054;2024-03-06T11:01:50;12.82;;;6.45;;
48823;SDS011;34640;53.590;10.054;2024-03-06T11:04:25;13.80;;;6.28;;
48823;SDS011;34640;53.590;10.054;2024-03-06T11:07:00;12.55;;;6.65;;
48823;SDS011;34640;53.590;10.054;2024-03-06T11:09:35;12.77;;;6.78;;
48823;SDS011;34640;53.590;10.054;2024-03-06T11:12:13;11.52;;;6.28;;
48823;SDS011;34640;53.590;10.054;2024-03-06T11:15:08;13.68;;;6.85;;
48823;SDS011;34640;53.590;10.054;2024-03-06T11:17:43;10.48;;;6.55;;
48823;SDS011;34640;53.590;10.054;2024-03-06T11:20:17;15.18;;;7.82;;
48823;SDS011;34640;53.590;10.054;2024-03-06T11:23:02;14.50;;;6.82;;
48823;SDS011;34640;53.590;10.054;2024-03-06T11:25:55;13.40;;;7.00;;
48823;SDS011;34640;53.590;10.054;2024-03-06T11:28:32;15.43;;;7.33;;
48823;SDS011;34640;53.590;10.054;2024-03-06T11:31:07;20.02;;;7.72;;
48823;SDS011;34640;53.590;10.054;2024-03-06T11:33:44;14.00;;;7.20;;
48823;SDS011;34640;53.590;10.054;2024-03-06T11:36:19;14.63;;;7.85;;
48823;SDS011;34640;53.590;10.054;2024-03-06T11:38:55;12.65;;;7.22;;
48823;SDS011;34640;53.590;10.054;2024-03-06T11:41:30;15.73;;;7.03;;
48823;SDS011;34640;53.590;10.054;2024-03-06T11:44:12;18.50;;;7.07;;
48823;SDS011;34640;53.590;10.054;2024-03-06T11:49:20;14.05;;;6.93;;
48823;SDS011;34640;53.590;10.054;2024-03-06T11:51:56;16.23;;;7.28;;
48823;SDS011;34640;53.590;10.054;2024-03-06T11:54:30;16.58;;;7.10;;
48823;SDS011;34640;53.590;10.054;2024-03-06T11:57:05;12.90;;;7.07;;
48823;SDS011;34640;53.590;10.054;2024-03-06T11:59:42;17.65;;;7.70;;
48823;SDS011;34640;53.590;10.054;2024-03-06T12:02:16;18.38;;;6.78;;
48823;SDS011;34640;53.590;10.054;2024-03-06T12:04:49;14.00;;;6.72;;
48823;SDS011;34640;53.590;10.054;2024-03-06T12:07:23;13.95;;;6.70;;
48823;SDS011;34640;53.590;10.054;2024-03-06T12:09:57;12.68;;;6.85;;
48823;SDS011;34640;53.590;10.054;2024-03-06T12:12:30;12.68;;;6.43;;
48823;SDS011;34640;53.590;10.054;2024-03-06T12:15:05;16.50;;;7.45;;
48823;SDS011;34640;53.590;10.054;2024-03-06T12:17:43;15.52;;;7.47;;
48823;SDS011;34640;53.590;10.054;2024-03-06T12:22:56;13.95;;;7.03;;
48823;SDS011;34640;53.590;10.054;2024-03-06T12:25:31;13.27;;;7.40;;
48823;SDS011;34640;53.590;10.054;2024-03-06T12:28:06;16.67;;;7.78;;
48823;SDS011;34640;53.590;10.054;2024-03-06T12:30:43;11.57;;;6.35;;
48823;SDS011;34640;53.590;10.054;2024-03-06T12:33:16;11.18;;;6.38;;
48823;SDS011;34640;53.590;10.054;2024-03-06T12:35:59;12.55;;;6.93;;
48823;SDS011;34640;53.590;10.054;2024-03-06T12:38:33;15.13;;;6.15;;
48823;SDS011;34640;53.590;10.054;2024-03-06T12:41:07;11.43;;;6.43;;
48823;SDS011;34640;53.590;10.054;2024-03-06T12:43:40;10.77;;;6.68;;
48823;SDS011;34640;53.590;10.054;2024-03-06T12:46:16;15.10;;;6.65;;
48823;SDS011;34640;53.590;10.054;2024-03-06T12:48:50;14.15;;;7.18;;
48823;SDS011;34640;53.590;10.054;2024-03-06T12:51:23;13.05;;;6.35;;
48823;SDS011;34640;53.590;10.054;2024-03-06T12:53:57;11.27;;;6.05;;
48823;SDS011;34640;53.590;10.054;2024-03-06T12:56:31;18.25;;;6.70;;
48823;SDS011;34640;53.590;10.054;2024-03-06T12:59:04;12.27;;;6.18;;
48823;SDS011;34640;53.590;10.054;2024-03-06T13:01:40;13.93;;;6.68;;
48823;SDS011;34640;53.590;10.054;2024-03-06T13:04:14;12.02;;;6.50;;
48823;SDS011;34640;53.590;10.054;2024-03-06T13:06:47;13.38;;;6.65;;
48823;SDS011;34640;53.590;10.054;2024-03-06T13:09:21;11.68;;;6.45;;
48823;SDS011;34640;53.590;10.054;2024-03-06T13:11:57;11.75;;;6.43;;
48823;SDS011;34640;53.590;10.054;2024-03-06T13:14:32;12.82;;;7.10;;
48823;SDS011;34640;53.590;10.054;2024-03-06T13:17:07;15.93;;;5.93;;
48823;SDS011;34640;53.590;10.054;2024-03-06T13:19:40;12.32;;;5.53;;
48823;SDS011;34640;53.590;10.054;2024-03-06T13:22:14;11.35;;;5.80;;
48823;SDS011;34640;53.590;10.054;2024-03-06T13:24:47;13.60;;;6.20;;
48823;SDS011;34640;53.590;10.054;2024-03-06T13:27:21;15.52;;;7.35;;
48823;SDS011;34640;53.590;10.054;2024-03-06T13:29:59;19.95;;;5.95;;
48823;SDS011;34640;53.590;10.054;2024-03-06T13:32:38;17.52;;;6.78;;
48823;SDS011;34640;53.590;10.054;2024-03-06T13:35:11;14.43;;;6.00;;
48823;SDS011;34640;53.590;10.054;2024-03-06T13:37:45;11.55;;;5.28;;
48823;SDS011;34640;53.590;10.054;2024-03-06T13:40:20;13.57;;;5.95;;
48823;SDS011;34640;53.590;10.054;2024-03-06T13:42:54;10.35;;;5.43;;
48823;SDS011;34640;53.590;10.054;2024-03-06T13:45:28;15.75;;;5.93;;
48823;SDS011;34640;53.590;10.054;2024-03-06T13:48:03;12.00;;;5.93;;
48823;SDS011;34640;53.590;10.054;2024-03-06T13:50:49;12.63;;;6.45;;
48823;SDS011;34640;53.590;10.054;2024-03-06T13:53:23;12.55;;;5.60;;
48823;SDS011;34640;53.590;10.054;2024-03-06T13:55:56;11.45;;;5.85;;
48823;SDS011;34640;53.590;10.054;2024-03-06T13:58:30;14.05;;;5.55;;
48823;SDS011;34640;53.590;10.054;2024-03-06T14:01:03;11.07;;;6.13;;
48823;SDS011;34640;53.590;10.054;2024-03-06T14:03:38;11.80;;;5.65;;
48823;SDS011;34640;53.590;10.054;2024-03-06T14:06:12;12.43;;;5.78;;
48823;SDS011;34640;53.590;10.054;2024-03-06T14:08:45;19.67;;;6.05;;
48823;SDS011;34640;53.590;10.054;2024-03-06T14:11:19;13.32;;;6.40;;
48823;SDS011;34640;53.590;10.054;2024-03-06T14:13:52;13.32;;;5.78;;
48823;SDS011;34640;53.590;10.054;2024-03-06T14:16:25;14.38;;;5.85;;
48823;SDS011;34640;53.590;10.054;2024-03-06T14:19:00;17.92;;;8.65;;
48823;SDS011;34640;53.590;10.054;2024-03-06T14:21:34;11.80;;;6.40;;
48823;SDS011;34640;53.590;10.054;2024-03-06T14:24:07;10.88;;;6.47;;
48823;SDS011;34640;53.590;10.054;2024-03-06T14:26:41;13.50;;;5.85;;
48823;SDS011;34640;53.590;10.054;2024-03-06T14:29:15;12.05;;;6.25;;
48823;SDS011;34640;53.590;10.054;2024-03-06T14:31:48;10.25;;;5.95;;
48823;SDS011;34640;53.590;10.054;2024-03-06T14:34:24;12.52;;;5.85;;
48823;SDS011;34640;53.590;10.054;2024-03-06T14:36:57;14.00;;;7.03;;
48823;SDS011;34640;53.590;10.054;2024-03-06T14:39:30;9.48;;;5.13;;
48823;SDS011;34640;53.590;10.054;2024-03-06T14:42:04;9.90;;;5.47;;
48823;SDS011;34640;53.590;10.054;2024-03-06T14:44:37;10.70;;;5.28;;
48823;SDS011;34640;53.590;10.054;2024-03-06T14:47:10;7.78;;;5.40;;
48823;SDS011;34640;53.590;10.054;2024-03-06T14:49:45;8.98;;;5.30;;
48823;SDS011;34640;53.590;10.054;2024-03-06T14:52:18;10.13;;;5.30;;
48823;SDS011;34640;53.590;10.054;2024-03-06T14:54:51;12.77;;;5.40;;
48823;SDS011;34640;53.590;10.054;2024-03-06T14:57:25;11.57;;;5.40;;
48823;SDS011;34640;53.590;10.054;2024-03-06T15:00:00;10.88;;;6.00;;
48823;SDS011;34640;53.590;10.054;2024-03-06T15:02:39;11.70;;;4.93;;
48823;SDS011;34640;53.590;10.054;2024-03-06T15:05:14;10.95;;;5.95;;
48823;SDS011;34640;53.590;10.054;2024-03-06T15:07:47;9.65;;;5.05;;
48823;SDS011;34640;53.590;10.054;2024-03-06T15:10:20;8.95;;;5.32;;
48823;SDS011;34640;53.590;10.054;2024-03-06T15:12:55;14.95;;;5.50;;
48823;SDS011;34640;53.590;10.054;2024-03-06T15:15:29;9.23;;;5.10;;
48823;SDS011;34640;53.590;10.054;2024-03-06T15:18:03;11.40;;;5.70;;